Quincy, IL

2:04 AM CST on February 08, 2016 (GMT -0600)
KB9HGI - N 17th St. | | Change Station
CLOSE
Current Station
Personal Weather Station
Location: Quincy, IL
Elevation: 614 ft
Nearby Weather Stations

Elev 614 ft 39.95 °N, 91.38 °W | Updated 2 seconds ago

Overcast
Overcast
35.5 °F
Feels Like 36 °F
N
2.0
Wind Variable Wind from West
Gusts 14.0 mph

Today
High -- | Low -- °F
--% Chance of Precip.
Yesterday
High -- | Low -- °F
Precip. -- in
Pressure 29.79 in
Visibility 6.0 miles
Clouds Mostly Cloudy 1400 ft
Overcast 2200 ft
Windchill 36 °F
Dew Point 31 °F
Humidity 83%
Rainfall 0.00 in
Snow Depth Not available.
7:07 AM 5:32 PM
Waning Crescent, 0% visible
METAR KUIN 080754Z AUTO 29014G22KT 6SM BR BKN014 OVC022 01/M01 A2978 RMK AO2 SLP086 T00111011
Pressure 29.79 in
Visibility 6.0 miles
Clouds Mostly Cloudy 1400 ft
Overcast 2200 ft
Windchill 36 °F
Dew Point 31 °F
Humidity 83%
Rainfall 0.00 in
Snow Depth Not available.
7:07 AM 5:32 PM
Waning Crescent, 0% visible
METAR KUIN 080754Z AUTO 29014G22KT 6SM BR BKN014 OVC022 01/M01 A2978 RMK AO2 SLP086 T00111011

10-Day Weather Forecast

Almanac

Astronomy

Feb. 08, 2016 Rise Set
Actual Time
Civil Twilight
Nautical Twilight
Astronomical Twilight
Moon
Length of Visible Light
Length of Day
Tomorrow will be .
, % of the Moon is Illuminated

Today's Extremes

State Highs State Lows

Community

WunderPhotos

Upload Photos

1,891,412 photos uploaded!

WunderBlog® & News

Nearby

Air Quality

  Air Quality AQ Index Pollutant
Not available.

Snow Depth

Station Depth Elevation

Earthquake Activity

City Distance Mag. Time & Date
Minimum magnitude displayed is 2.5.

Coastal Water Temperatures

Place Temperature

Stations

Nearby Weather Stations

Station Location Temp. Windchill Dew Point Humidity Wind Precip. Elev Updated Type
                   

Watches & Warnings

There are currently no watches in effect.